Time;durP1;ratioP1;P1;durP2;ratioP2;P2;SDS_P1;SDS_P2;PMS_P1;PMS_P2;Temp;Humidity;BMP_temperature;BMP_pressure;BME280_temperature;BME280_humidity;BME280_pressure;Samples;Min_cycle;Max_cycle;Signal;HPM_P1;HPM_P2
2023/07/20 00:01:15;;;;;;;0.00;0.00;;;;;;;14.66;100.00;96396.59;4965643;28;20050;-78
2023/07/20 00:04:01;;;;;;;0.00;0.00;;;;;;;14.74;100.00;96401.38;4968760;28;20046;-78
2023/07/20 00:06:47;;;;;;;0.00;0.00;;;;;;;14.73;100.00;96399.78;4964824;28;20050;-78
2023/07/20 00:09:33;;;;;;;0.00;0.00;;;;;;;14.81;100.00;96401.09;4967871;28;20118;-77
2023/07/20 00:12:19;;;;;;;0.00;0.00;;;;;;;14.80;100.00;96387.91;4967465;28;20058;-79
2023/07/20 00:15:05;;;;;;;0.10;0.10;;;;;;;14.86;100.00;96382.19;4966570;28;20137;-78
2023/07/20 00:17:51;;;;;;;0.10;0.10;;;;;;;14.92;100.00;96391.06;4940611;28;20089;-78
2023/07/20 00:20:37;;;;;;;0.10;0.10;;;;;;;14.92;100.00;96388.38;4967632;28;20898;-77
2023/07/20 00:23:23;;;;;;;0.00;0.00;;;;;;;14.98;100.00;96382.69;4955866;28;20125;-77
2023/07/20 00:26:08;;;;;;;0.10;0.10;;;;;;;15.02;100.00;96377.56;4965808;28;20038;-79
2023/07/20 00:28:54;;;;;;;0.10;0.10;;;;;;;14.91;100.00;96381.38;4967342;28;20041;-75
2023/07/20 00:31:40;;;;;;;0.00;0.00;;;;;;;14.99;100.00;96381.59;4963517;28;20038;-77
2023/07/20 00:34:26;;;;;;;0.00;0.00;;;;;;;14.89;100.00;96375.47;4968982;28;20053;-77
2023/07/20 00:37:13;;;;;;;0.10;0.10;;;;;;;14.98;100.00;96377.28;4943128;28;20046;-78
2023/07/20 00:39:59;;;;;;;0.03;0.03;;;;;;;14.96;100.00;96373.28;4952639;28;20057;-77
2023/07/20 00:42:45;;;;;;;0.00;0.00;;;;;;;15.06;100.00;96381.28;4965288;28;20998;-79
2023/07/20 00:45:32;;;;;;;0.10;0.10;;;;;;;15.14;100.00;96380.72;4946745;28;20046;-78
2023/07/20 00:48:18;;;;;;;0.00;0.00;;;;;;;15.18;100.00;96379.09;4955531;28;20045;-77
2023/07/20 00:51:04;;;;;;;0.00;0.00;;;;;;;15.23;100.00;96389.00;4939356;28;20055;-77
2023/07/20 00:53:50;;;;;;;0.10;0.10;;;;;;;15.26;100.00;96370.41;4957233;28;20516;-79
2023/07/20 00:56:36;;;;;;;0.00;0.00;;;;;;;15.29;100.00;96371.72;4954417;28;20042;-76
2023/07/20 00:59:23;;;;;;;0.00;0.00;;;;;;;15.19;100.00;96382.56;4951137;28;20119;-79
2023/07/20 01:02:09;;;;;;;0.05;0.05;;;;;;;15.22;100.00;96382.81;4945114;28;20054;-78
2023/07/20 01:04:57;;;;;;;0.00;0.00;;;;;;;15.23;100.00;96389.81;4956791;28;20045;-76
2023/07/20 01:07:52;;;;;;;0.00;0.00;;;;;;;15.23;100.00;96381.72;4955064;28;20046;-76
2023/07/20 01:10:50;;;;;;;0.00;0.00;;;;;;;15.32;100.00;96388.13;4937792;28;20683;-78
2023/07/20 01:13:37;;;;;;;0.00;0.00;;;;;;;15.31;100.00;96386.53;4948001;28;20043;-76
2023/07/20 01:16:24;;;;;;;0.10;0.10;;;;;;;15.29;100.00;96395.97;4952165;28;20069;-77
2023/07/20 01:19:10;;;;;;;0.00;0.00;;;;;;;15.32;100.00;96398.91;4956712;28;20042;-77
2023/07/20 01:22:00;;;;;;;0.10;0.10;;;;;;;15.30;100.00;96393.00;4955216;28;20042;-77
2023/07/20 01:25:15;;;;;;;0.10;0.10;;;;;;;15.30;100.00;96400.28;4947649;28;20039;-76
2023/07/20 01:28:19;;;;;;;0.00;0.00;;;;;;;15.33;100.00;96399.75;4936323;28;20591;-76
2023/07/20 01:31:09;;;;;;;0.00;0.00;;;;;;;15.36;100.00;96403.75;4953720;28;20801;-79
2023/07/20 01:33:57;;;;;;;0.00;0.00;;;;;;;15.36;100.00;96403.75;4951779;28;20035;-76
2023/07/20 01:36:45;;;;;;;0.00;0.00;;;;;;;15.36;100.00;96388.38;4954230;28;20042;-78
2023/07/20 01:39:33;;;;;;;0.10;0.10;;;;;;;15.39;100.00;96387.81;4955442;28;20322;-76
2023/07/20 01:42:19;;;;;;;0.05;0.05;;;;;;;15.34;100.00;96385.16;4955457;28;20049;-76
2023/07/20 01:45:05;;;;;;;0.10;0.10;;;;;;;15.29;100.00;96391.41;4962408;28;20056;-79
2023/07/20 01:47:51;;;;;;;0.00;0.00;;;;;;;15.32;100.00;96384.63;4951603;28;20073;-76
2023/07/20 01:50:37;;;;;;;0.00;0.00;;;;;;;15.27;100.00;96387.38;4949246;28;20560;-76
2023/07/20 01:53:23;;;;;;;0.10;0.10;;;;;;;15.26;100.00;96388.47;4961291;28;20046;-76
2023/07/20 01:56:09;;;;;;;0.10;0.10;;;;;;;15.24;100.00;96387.91;4963241;28;20049;-78
2023/07/20 01:58:55;;;;;;;0.10;0.10;;;;;;;15.25;100.00;96389.53;4952785;28;20038;-76
2023/07/20 02:01:41;;;;;;;0.10;0.10;;;;;;;15.28;100.00;96397.06;4951030;28;20057;-77
2023/07/20 02:04:27;;;;;;;0.10;0.10;;;;;;;15.31;100.00;96385.72;4964536;28;20317;-77
2023/07/20 02:07:13;;;;;;;0.00;0.00;;;;;;;15.28;100.00;96397.88;4952971;28;20145;-77
2023/07/20 02:09:59;;;;;;;0.00;0.00;;;;;;;15.07;100.00;96391.00;4951805;28;20607;-76
2023/07/20 02:12:45;;;;;;;0.00;0.00;;;;;;;15.11;100.00;96392.06;4956727;28;20684;-78
2023/07/20 02:15:30;;;;;;;0.10;0.10;;;;;;;15.20;100.00;96390.38;4957742;28;20595;-76
2023/07/20 02:18:16;;;;;;;0.00;0.00;;;;;;;15.01;100.00;96376.72;4952071;28;20045;-77
2023/07/20 02:21:02;;;;;;;0.00;0.00;;;;;;;14.88;100.00;96393.53;4964743;28;20844;-78
2023/07/20 02:23:48;;;;;;;0.10;0.10;;;;;;;14.67;100.00;96373.94;4954783;28;20512;-78
2023/07/20 02:26:34;;;;;;;0.00;0.00;;;;;;;14.59;100.00;96393.38;4967027;28;20465;-78
2023/07/20 02:29:20;;;;;;;0.00;0.00;;;;;;;14.49;100.00;96391.53;4967410;28;20039;-78
2023/07/20 02:32:07;;;;;;;0.00;0.00;;;;;;;14.67;100.00;96382.03;4966223;28;20134;-78
2023/07/20 02:34:52;;;;;;;0.10;0.10;;;;;;;14.67;100.00;96384.72;4951988;28;20746;-78
2023/07/20 02:37:38;;;;;;;0.00;0.00;;;;;;;14.80;100.00;96386.03;4967254;28;20047;-76
2023/07/20 02:40:24;;;;;;;0.08;0.08;;;;;;;14.85;100.00;96377.09;4953811;28;20116;-77
2023/07/20 02:43:10;;;;;;;0.00;0.00;;;;;;;14.81;100.00;96365.28;4952820;28;20959;-75
2023/07/20 02:45:56;;;;;;;0.03;0.03;;;;;;;14.79;100.00;96367.44;4931635;28;20055;-76
2023/07/20 02:48:41;;;;;;;0.00;0.00;;;;;;;14.80;100.00;96379.84;4935040;28;20065;-78
2023/07/20 02:51:27;;;;;;;0.10;0.10;;;;;;;14.88;100.00;96369.28;4933147;28;20046;-77
2023/07/20 02:54:13;;;;;;;0.10;0.10;;;;;;;14.92;100.00;96373.00;4943289;28;20046;-77
2023/07/20 02:56:59;;;;;;;0.10;0.10;;;;;;;14.98;100.00;96376.50;4932932;28;20038;-79
2023/07/20 02:59:45;;;;;;;0.10;0.10;;;;;;;14.99;100.00;96370.03;4946656;28;20130;-79
2023/07/20 03:02:31;;;;;;;0.10;0.10;;;;;;;15.02;100.00;96370.28;4934416;28;20121;-79
2023/07/20 03:05:17;;;;;;;0.10;0.10;;;;;;;15.04;100.00;96372.69;4949217;28;20122;-76
2023/07/20 03:08:03;;;;;;;0.00;0.00;;;;;;;14.97;100.00;96374.88;4939871;28;20116;-77
2023/07/20 03:10:49;;;;;;;0.10;0.10;;;;;;;14.91;100.00;96378.69;4933019;28;20121;-77
2023/07/20 03:13:35;;;;;;;0.00;0.00;;;;;;;14.80;100.00;96369.88;4923765;28;20075;-75
2023/07/20 03:16:24;;;;;;;0.10;0.10;;;;;;;14.72;100.00;96375.81;4948397;28;20723;-77
2023/07/20 03:19:12;;;;;;;0.10;0.10;;;;;;;14.68;100.00;96380.94;4936923;28;20232;-78
2023/07/20 03:21:58;;;;;;;0.00;0.00;;;;;;;14.66;100.00;96383.13;4947525;28;20754;-75
2023/07/20 03:24:43;;;;;;;0.10;0.10;;;;;;;14.65;100.00;96384.19;4948931;28;20046;-78
2023/07/20 03:27:30;;;;;;;0.10;0.10;;;;;;;14.60;100.00;96376.13;4949978;28;20490;-76
2023/07/20 03:30:16;;;;;;;0.10;0.10;;;;;;;14.71;100.00;96382.31;4925715;28;20452;-79
2023/07/20 03:33:03;;;;;;;0.00;0.00;;;;;;;14.76;100.00;96377.66;4938880;28;20042;-75
2023/07/20 03:35:50;;;;;;;0.05;0.05;;;;;;;14.86;100.00;96390.28;4936665;28;20047;-75
2023/07/20 03:38:36;;;;;;;0.10;0.10;;;;;;;14.93;100.00;96393.47;4948909;28;20058;-77
2023/07/20 03:41:22;;;;;;;0.10;0.10;;;;;;;14.94;100.00;96386.19;4947087;28;20051;-78
2023/07/20 03:44:08;;;;;;;0.10;0.10;;;;;;;14.88;100.00;96384.63;4956373;28;20095;-76
2023/07/20 03:46:53;;;;;;;0.10;0.10;;;;;;;14.76;100.00;96388.44;4952347;28;20807;-77
2023/07/20 03:49:39;;;;;;;0.10;0.10;;;;;;;14.55;100.00;96397.69;4969969;28;20069;-75
2023/07/20 03:52:27;;;;;;;0.10;0.10;;;;;;;14.65;100.00;96386.91;4970294;28;20802;-76
2023/07/20 03:55:13;;;;;;;0.00;0.00;;;;;;;14.74;100.00;96387.94;4971220;28;20516;-75
2023/07/20 03:57:59;;;;;;;0.10;0.10;;;;;;;14.79;100.00;96389.81;4952766;28;20963;-76
2023/07/20 04:00:46;;;;;;;0.00;0.00;;;;;;;14.80;100.00;96393.31;4966525;28;20057;-76
2023/07/20 04:03:33;;;;;;;0.10;0.10;;;;;;;14.64;100.00;96393.38;4958910;28;20051;-79
2023/07/20 04:06:19;;;;;;;0.00;0.00;;;;;;;14.37;100.00;96398.25;4956099;28;20042;-77
2023/07/20 04:09:05;;;;;;;0.08;0.08;;;;;;;14.15;100.00;96401.25;4957766;28;20796;-76
2023/07/20 04:11:51;;;;;;;0.10;0.10;;;;;;;14.05;100.00;96395.91;4959158;28;20048;-75
2023/07/20 04:14:37;;;;;;;0.10;0.10;;;;;;;13.98;100.00;96396.19;4972193;28;20034;-78
2023/07/20 04:17:22;;;;;;;0.10;0.10;;;;;;;14.07;100.00;96394.56;4968389;28;20042;-77
2023/07/20 04:20:09;;;;;;;0.10;0.10;;;;;;;14.06;100.00;96395.63;4969527;28;20042;-76
2023/07/20 04:22:55;;;;;;;0.10;0.10;;;;;;;14.06;100.00;96392.94;4970302;28;20057;-75
2023/07/20 04:25:42;;;;;;;0.10;0.10;;;;;;;14.18;100.00;96395.34;4953086;28;20054;-76
2023/07/20 04:28:31;;;;;;;0.10;0.10;;;;;;;14.28;100.00;96397.22;4968117;28;20031;-75
2023/07/20 04:31:17;;;;;;;0.10;0.10;;;;;;;14.42;100.00;96399.06;4969873;28;20077;-77
2023/07/20 04:34:04;;;;;;;0.10;0.10;;;;;;;14.63;100.00;96405.22;4956106;28;20105;-76
2023/07/20 04:36:53;;;;;;;0.10;0.10;;;;;;;14.69;100.00;96408.69;4951166;28;20070;-76
2023/07/20 04:39:40;;;;;;;0.00;0.00;;;;;;;14.64;100.00;96390.66;4960118;28;20511;-75
2023/07/20 04:42:29;;;;;;;0.10;0.10;;;;;;;14.42;100.00;96392.88;4955455;28;20493;-76
2023/07/20 04:45:18;;;;;;;0.10;0.10;;;;;;;14.29;100.00;96398.81;4954820;28;20050;-76
2023/07/20 04:48:13;;;;;;;0.05;0.05;;;;;;;14.43;100.00;96410.63;4956490;28;20058;-79
2023/07/20 04:51:06;;;;;;;0.10;0.10;;;;;;;14.55;100.00;96405.75;4954458;28;20070;-77
2023/07/20 04:53:52;;;;;;;0.05;0.05;;;;;;;14.60;100.00;96413.84;4954252;28;20505;-77
2023/07/20 04:56:38;;;;;;;0.10;0.10;;;;;;;14.54;100.00;96409.53;4954509;28;20125;-78
2023/07/20 04:59:27;;;;;;;0.10;0.10;;;;;;;14.65;100.00;96411.13;4956732;28;20042;-77
2023/07/20 05:02:13;;;;;;;0.00;0.00;;;;;;;14.70;100.00;96412.97;4967025;28;20058;-76
2023/07/20 05:04:59;;;;;;;0.10;0.10;;;;;;;14.74;100.00;96408.66;4954798;28;20152;-78
2023/07/20 05:07:44;;;;;;;0.00;0.00;;;;;;;14.72;100.00;96406.25;4968719;28;20048;-78
2023/07/20 05:10:32;;;;;;;0.10;0.10;;;;;;;14.65;100.00;96413.81;4968091;28;20073;-76
2023/07/20 05:13:18;;;;;;;0.00;0.00;;;;;;;14.61;100.00;96404.66;4955716;28;20043;-76
2023/07/20 05:16:04;;;;;;;0.10;0.10;;;;;;;14.70;100.00;96412.97;4967070;28;20085;-75
2023/07/20 05:18:51;;;;;;;0.08;0.08;;;;;;;14.67;100.00;96408.16;4955375;28;20081;-75
2023/07/20 05:21:37;;;;;;;0.00;0.00;;;;;;;14.73;100.00;96397.09;4958109;28;20116;-77
2023/07/20 05:24:23;;;;;;;0.10;0.10;;;;;;;14.84;100.00;96400.53;4953889;28;20622;-76
2023/07/20 05:27:09;;;;;;;0.03;0.03;;;;;;;14.85;100.00;96402.13;4968293;28;20053;-77
2023/07/20 05:29:55;;;;;;;0.03;0.03;;;;;;;14.85;100.00;96404.03;4966501;28;20078;-78
2023/07/20 05:32:41;;;;;;;0.03;0.03;;;;;;;14.97;100.00;96401.84;4966794;28;20037;-78
2023/07/20 05:35:26;;;;;;;0.10;0.10;;;;;;;15.03;100.00;96406.13;4970614;28;20526;-78
2023/07/20 05:38:12;;;;;;;0.10;0.10;;;;;;;15.10;100.00;96406.63;4969225;28;20043;-77
2023/07/20 05:41:01;;;;;;;0.10;0.10;;;;;;;15.13;100.00;96395.28;4969227;28;20638;-76
2023/07/20 05:44:13;;;;;;;0.08;0.08;;;;;;;15.22;100.00;96398.97;5614201;23;20032;31
2023/07/20 05:46:59;;;;;;;0.10;0.10;;;;;;;15.22;100.00;96395.47;4863342;28;20135;-80
2023/07/20 05:49:44;;;;;;;0.10;0.10;;;;;;;15.29;100.00;96391.41;4902923;29;20052;-78
2023/07/20 05:52:30;;;;;;;0.03;0.03;;;;;;;15.45;100.00;96394.78;4907506;29;20039;-79
2023/07/20 05:55:08;;;;;;;0.10;0.10;;;;;;;15.55;100.00;96393.91;5038897;23;20481;-75
2023/07/20 05:57:55;;;;;;;0.10;0.10;;;;;;;15.33;100.00;96400.53;5014844;28;20597;-79
2023/07/20 06:00:41;;;;;;;0.10;0.10;;;;;;;15.15;100.00;96397.69;5034158;28;20048;-78
2023/07/20 06:03:28;;;;;;;0.10;0.10;;;;;;;15.21;100.00;96397.38;5050572;28;20145;-79
2023/07/20 06:06:14;;;;;;;0.10;0.10;;;;;;;15.29;100.00;96404.88;5052858;28;20561;-78
2023/07/20 06:09:05;;;;;;;0.10;0.10;;;;;;;15.25;100.00;96414.63;5048298;28;20519;-79
2023/07/20 06:11:51;;;;;;;0.10;0.10;;;;;;;15.14;100.00;96414.94;5050895;28;20601;-79
2023/07/20 06:14:39;;;;;;;0.03;0.03;;;;;;;15.44;100.00;96417.44;5036083;28;20493;-78
2023/07/20 06:17:25;;;;;;;0.10;0.10;;;;;;;15.51;100.00;96427.94;5050715;28;20305;-78
2023/07/20 06:20:11;;;;;;;0.10;0.10;;;;;;;15.41;100.00;96419.88;5053127;28;20041;-77
2023/07/20 06:22:57;;;;;;;0.10;0.10;;;;;;;15.68;100.00;96428.38;5049813;28;20373;-78
2023/07/20 06:25:43;;;;;;;0.10;0.10;;;;;;;15.69;100.00;96427.28;5050060;28;20049;-79
2023/07/20 06:28:29;;;;;;;0.00;0.00;;;;;;;15.70;100.00;96423.47;5050845;28;20124;-79
2023/07/20 06:31:17;;;;;;;0.10;0.10;;;;;;;15.72;100.00;96424.03;5049928;28;20074;-79
2023/07/20 06:34:03;;;;;;;0.10;0.10;;;;;;;15.49;100.00;96419.31;5048241;28;20349;-80
2023/07/20 06:36:51;;;;;;;0.10;0.10;;;;;;;15.58;100.00;96434.63;5055082;28;20040;-79
2023/07/20 06:39:37;;;;;;;0.10;0.10;;;;;;;15.87;100.00;96432.00;5050776;28;20672;-79
2023/07/20 06:42:23;;;;;;;0.10;0.10;;;;;;;15.90;100.00;96437.91;5054364;28;20449;-78
2023/07/20 06:45:09;;;;;;;0.10;0.10;;;;;;;15.59;100.00;96430.03;5056290;28;20180;-78
2023/07/20 06:47:55;;;;;;;0.10;0.10;;;;;;;15.64;100.00;96430.03;5053515;28;20044;-78
2023/07/20 06:50:43;;;;;;;0.10;0.10;;;;;;;15.90;100.00;96437.91;5054191;28;20400;-77
2023/07/20 06:53:30;;;;;;;0.10;0.10;;;;;;;15.96;100.00;96437.59;5041495;28;20051;-78
2023/07/20 06:56:16;;;;;;;0.20;0.20;;;;;;;16.06;100.00;96431.28;5054009;28;20036;-79
2023/07/20 06:59:02;;;;;;;0.10;0.10;;;;;;;16.12;100.00;96430.16;5052482;28;20519;-77
2023/07/20 07:01:48;;;;;;;0.10;0.10;;;;;;;16.38;100.00;96431.50;5040268;28;20398;-78
2023/07/20 07:04:34;;;;;;;0.10;0.10;;;;;;;16.47;100.00;96428.19;5055902;28;20135;-77
2023/07/20 07:07:20;;;;;;;0.10;0.10;;;;;;;16.69;100.00;96428.50;5042156;28;20399;-79
2023/07/20 07:10:09;;;;;;;0.10;0.10;;;;;;;16.86;100.00;96431.53;5055570;28;20048;-78
2023/07/20 07:12:54;;;;;;;0.10;0.10;;;;;;;16.76;100.00;96426.28;5050154;28;20625;-78
2023/07/20 07:15:40;;;;;;;0.10;0.10;;;;;;;16.77;100.00;96421.66;5053996;28;20354;-78
2023/07/20 07:18:26;;;;;;;0.10;0.10;;;;;;;16.93;100.00;96432.00;5038815;28;20826;-79
2023/07/20 07:21:12;;;;;;;0.10;0.10;;;;;;;16.86;100.00;96434.25;5055370;28;20429;-77
2023/07/20 07:23:59;;;;;;;0.10;0.10;;;;;;;17.01;100.00;96435.16;5043369;28;20605;-79
2023/07/20 07:26:45;;;;;;;0.05;0.05;;;;;;;16.57;100.00;96438.88;5037308;28;21174;-79
2023/07/20 07:29:31;;;;;;;0.10;0.10;;;;;;;16.76;100.00;96442.47;5051789;28;20053;-78
2023/07/20 07:32:17;;;;;;;0.10;0.10;;;;;;;16.96;100.00;96439.56;5055531;28;20090;-77
2023/07/20 07:35:03;;;;;;;0.10;0.10;;;;;;;16.97;100.00;96433.03;5055678;28;20182;-78
2023/07/20 07:37:49;;;;;;;0.10;0.10;;;;;;;16.85;100.00;96446.16;5029373;28;20101;-80
2023/07/20 07:40:35;;;;;;;0.10;0.10;;;;;;;17.07;100.00;96437.50;5054346;28;20044;-78
2023/07/20 07:43:20;;;;;;;0.10;0.10;;;;;;;17.14;100.00;96432.56;5053929;28;20036;-78
2023/07/20 07:46:06;;;;;;;0.10;0.10;;;;;;;17.32;100.00;96428.25;5050801;28;20055;-79
2023/07/20 07:48:53;;;;;;;0.10;0.10;;;;;;;16.92;100.00;96427.69;5050452;28;20033;-78
2023/07/20 07:51:38;;;;;;;0.10;0.10;;;;;;;16.99;100.00;96436.25;5041806;28;20064;-79
2023/07/20 07:54:24;;;;;;;0.10;0.10;;;;;;;17.09;100.00;96456.13;5034409;28;20499;-77
2023/07/20 07:57:10;;;;;;;0.10;0.10;;;;;;;17.23;100.00;96446.22;5033939;28;20041;-78
2023/07/20 07:59:56;;;;;;;0.10;0.10;;;;;;;17.48;100.00;96445.06;5055540;28;20045;-79
2023/07/20 08:02:43;;;;;;;0.10;0.10;;;;;;;17.59;100.00;96445.72;5053478;28;20518;-79
2023/07/20 08:05:29;;;;;;;0.10;0.10;;;;;;;17.63;100.00;96438.63;5033361;28;20041;-78
2023/07/20 08:08:15;;;;;;;0.10;0.10;;;;;;;18.10;100.00;96438.44;5047583;28;20047;-77
2023/07/20 08:11:00;;;;;;;0.10;0.10;;;;;;;18.33;100.00;96447.50;5052641;28;20046;-78
2023/07/20 08:13:46;;;;;;;0.10;0.10;;;;;;;17.96;100.00;96442.19;5053355;28;20048;-78
2023/07/20 08:16:32;;;;;;;0.10;0.10;;;;;;;17.57;100.00;96439.78;5054768;28;20041;-78
2023/07/20 08:19:18;;;;;;;0.10;0.10;;;;;;;17.58;100.00;96447.59;5050696;28;20486;-78
2023/07/20 08:22:04;;;;;;;0.10;0.10;;;;;;;17.75;100.00;96452.56;5046707;28;20387;-78
2023/07/20 08:24:50;;;;;;;0.10;0.10;;;;;;;17.83;100.00;96457.31;5053762;28;20029;-78
2023/07/20 08:27:37;;;;;;;0.10;0.10;;;;;;;18.21;100.00;96451.78;5052309;28;20044;-78
2023/07/20 08:30:25;;;;;;;0.10;0.10;;;;;;;18.57;100.00;96463.59;5051940;28;20045;-80
2023/07/20 08:33:17;;;;;;;0.10;0.10;;;;;;;18.64;100.00;96482.19;5040853;28;20048;-79
2023/07/20 08:36:03;;;;;;;0.10;0.10;;;;;;;18.95;100.00;96468.06;5039999;28;20475;-77
2023/07/20 08:38:50;;;;;;;0.10;0.10;;;;;;;19.31;100.00;96471.69;5054401;28;20119;-78
2023/07/20 08:41:39;;;;;;;0.10;0.10;;;;;;;19.10;100.00;96468.56;5051777;28;20075;-78
2023/07/20 08:44:25;;;;;;;0.10;0.10;;;;;;;18.62;100.00;96473.56;5037415;28;20032;-77
2023/07/20 08:47:13;;;;;;;0.10;0.10;;;;;;;18.54;100.00;96466.91;5051331;28;20099;-77
2023/07/20 08:50:05;;;;;;;0.10;0.10;;;;;;;18.46;100.00;96464.91;5051864;28;20468;-79
2023/07/20 08:52:52;;;;;;;0.10;0.10;;;;;;;18.47;100.00;96469.22;5041533;28;20553;-78
2023/07/20 08:55:40;;;;;;;0.10;0.10;;;;;;;18.20;100.00;96469.94;5049765;28;20160;-77
2023/07/20 08:58:28;;;;;;;0.10;0.10;;;;;;;18.30;100.00;96463.56;5044833;28;20098;-78
2023/07/20 09:01:14;;;;;;;0.10;0.10;;;;;;;18.75;100.00;96458.44;5053323;28;20552;-77
2023/07/20 09:04:02;;;;;;;0.00;0.00;;;;;;;19.15;100.00;96460.34;5051656;28;20201;-77
2023/07/20 09:06:49;;;;;;;0.10;0.10;;;;;;;19.44;100.00;96456.47;5042033;28;20052;-78
2023/07/20 09:09:40;;;;;;;0.00;0.00;;;;;;;19.45;100.00;96453.47;5050917;28;20053;-78
2023/07/20 09:12:26;;;;;;;0.08;0.08;;;;;;;19.77;100.00;96459.84;5052632;28;20059;-78
2023/07/20 09:15:12;;;;;;;0.10;0.10;;;;;;;19.28;100.00;96471.47;5053616;28;20066;-79
2023/07/20 09:18:02;;;;;;;0.10;0.10;;;;;;;18.88;100.00;96468.47;5053999;28;20055;-79
2023/07/20 09:20:48;;;;;;;0.10;0.10;;;;;;;18.85;100.00;96464.47;5050147;28;20249;-77
2023/07/20 09:23:36;;;;;;;0.10;0.10;;;;;;;19.00;100.00;96463.38;5055028;28;20119;-77
2023/07/20 09:26:22;;;;;;;0.10;0.10;;;;;;;19.42;100.00;96455.97;5047079;28;20131;-79
2023/07/20 09:29:09;;;;;;;0.10;0.10;;;;;;;19.67;100.00;96457.34;5048976;28;20362;-77
2023/07/20 09:32:03;;;;;;;0.10;0.10;;;;;;;19.77;100.00;96446.25;5050573;28;20739;-78
2023/07/20 09:34:52;;;;;;;0.10;0.10;;;;;;;19.86;100.00;96449.03;5045095;28;20044;-79
2023/07/20 09:37:38;;;;;;;0.10;0.10;;;;;;;19.99;100.00;96459.03;5048894;28;20383;-78
2023/07/20 09:40:24;;;;;;;0.00;0.00;;;;;;;19.99;100.00;96457.09;5050212;28;20120;-77
2023/07/20 09:43:11;;;;;;;0.00;0.00;;;;;;;20.01;100.00;96459.53;5036056;28;20461;-79
2023/07/20 09:45:59;;;;;;;0.00;0.00;;;;;;;20.01;100.00;96443.25;5049285;28;20047;-77
2023/07/20 09:48:53;;;;;;;0.10;0.10;;;;;;;19.77;100.00;96446.25;5032167;28;20047;-78
2023/07/20 09:51:40;;;;;;;0.10;0.10;;;;;;;19.94;100.00;96456.44;5050657;28;20410;-79
2023/07/20 09:54:28;;;;;;;0.00;0.00;;;;;;;20.20;100.00;96432.97;5052756;28;20410;-78
2023/07/20 09:57:14;;;;;;;0.10;0.10;;;;;;;20.65;100.00;96443.78;5036310;28;20136;-77
2023/07/20 10:00:02;;;;;;;0.03;0.03;;;;;;;20.62;100.00;96438.97;5048810;28;22173;-77
2023/07/20 10:02:51;;;;;;;0.10;0.10;;;;;;;20.94;98.72;96447.91;5048848;28;20049;-78
2023/07/20 10:05:42;;;;;;;0.10;0.10;;;;;;;20.86;99.54;96438.63;5037796;28;20461;-78
2023/07/20 10:08:30;;;;;;;0.05;0.05;;;;;;;21.06;100.00;96448.91;5051588;28;20075;-78
2023/07/20 10:11:17;;;;;;;0.10;0.10;;;;;;;21.18;98.76;96444.78;5056852;28;20032;-78
2023/07/20 10:14:06;;;;;;;0.10;0.10;;;;;;;21.74;94.28;96446.63;5035320;28;20397;-80
2023/07/20 10:16:57;;;;;;;0.00;0.00;;;;;;;20.94;98.65;96439.75;5048544;28;20500;-79
2023/07/20 10:19:49;;;;;;;0.00;0.00;;;;;;;20.46;98.62;96448.66;5051064;28;20510;-78
2023/07/20 10:22:36;;;;;;;0.00;0.00;;;;;;;20.01;100.00;96451.41;5041424;28;20041;-78
2023/07/20 10:25:23;;;;;;;0.10;0.10;;;;;;;20.25;98.64;96454.59;5055002;28;20044;-79
2023/07/20 10:28:11;;;;;;;0.10;0.10;;;;;;;20.59;98.15;96453.19;5053410;28;20041;-78
2023/07/20 10:30:57;;;;;;;0.10;0.10;;;;;;;21.44;96.13;96444.84;5049060;28;20049;-77
2023/07/20 10:33:44;;;;;;;0.10;0.10;;;;;;;21.93;89.50;96435.41;5039691;28;20648;-78
2023/07/20 10:36:30;;;;;;;0.05;0.05;;;;;;;22.08;88.53;96426.75;5055022;28;20085;-78
2023/07/20 10:39:30;;;;;;;0.10;0.10;;;;;;;22.17;87.93;96421.31;5058089;28;20193;-79
2023/07/20 10:42:17;;;;;;;0.00;0.00;;;;;;;21.53;92.74;96429.31;5056223;28;20132;-79
2023/07/20 10:45:03;;;;;;;0.03;0.03;;;;;;;21.13;95.23;96432.91;5038508;28;20422;-79
2023/07/20 10:47:49;;;;;;;0.10;0.10;;;;;;;21.86;93.25;96418.75;5040335;28;20066;-79
2023/07/20 10:50:35;;;;;;;0.20;0.20;;;;;;;22.65;89.40;96412.03;5040002;28;20341;-77
2023/07/20 10:53:21;;;;;;;0.03;0.03;;;;;;;22.57;88.76;96410.94;5053738;28;20359;-78
2023/07/20 10:56:15;;;;;;;0.20;0.20;;;;;;;22.78;86.75;96413.72;5052141;28;20584;-77
2023/07/20 10:59:18;;;;;;;0.10;0.10;;;;;;;23.22;82.20;96415.16;5053811;28;20490;-80
2023/07/20 11:02:08;;;;;;;0.10;0.10;;;;;;;23.44;77.89;96418.69;5052842;28;20505;-79
2023/07/20 11:04:55;;;;;;;0.00;0.00;;;;;;;24.04;78.81;96415.47;5060340;28;20415;-79
2023/07/20 11:07:41;;;;;;;0.10;0.10;;;;;;;24.06;75.06;96418.69;5054327;28;20121;-78
2023/07/20 11:10:27;;;;;;;0.00;0.00;;;;;;;23.40;76.10;96412.28;5055497;28;20032;-79
2023/07/20 11:13:20;;;;;;;0.10;0.10;;;;;;;23.13;78.22;96408.94;5042108;28;20040;-79
2023/07/20 11:16:05;;;;;;;0.10;0.10;;;;;;;23.76;76.54;96409.81;5053381;28;20520;-78
2023/07/20 11:18:51;;;;;;;0.00;0.00;;;;;;;24.30;68.44;96407.03;5057378;28;20367;-79
2023/07/20 11:21:41;;;;;;;0.10;0.10;;;;;;;23.78;74.75;96415.72;5039181;28;20052;-77
2023/07/20 11:24:27;;;;;;;0.08;0.08;;;;;;;24.01;76.47;96405.22;5032132;28;20081;-77
2023/07/20 11:27:13;;;;;;;0.10;0.10;;;;;;;24.46;69.76;96401.75;5047440;28;20044;-78
2023/07/20 11:29:58;;;;;;;0.00;0.00;;;;;;;24.53;69.62;96410.19;5044958;28;20535;-77
2023/07/20 11:32:48;;;;;;;0.10;0.10;;;;;;;24.09;68.82;96403.56;5052924;28;20056;-78
2023/07/20 11:35:46;;;;;;;0.10;0.10;;;;;;;23.33;73.29;96402.69;5055317;28;20040;-79
2023/07/20 11:38:32;;;;;;;0.10;0.10;;;;;;;22.61;76.83;96411.09;5054089;28;20467;-79
2023/07/20 11:41:18;;;;;;;0.00;0.00;;;;;;;22.01;75.46;96414.72;5055437;28;20597;-78
2023/07/20 11:44:06;;;;;;;0.00;0.00;;;;;;;21.61;79.18;96409.47;5039897;28;20045;-78
2023/07/20 11:47:10;;;;;;;0.05;0.05;;;;;;;21.52;80.21;96411.41;5044819;28;20044;-78
2023/07/20 11:50:03;;;;;;;0.10;0.10;;;;;;;21.40;80.98;96415.56;5039047;28;20041;-78
2023/07/20 11:52:49;;;;;;;0.00;0.00;;;;;;;21.37;83.43;96409.94;5052750;28;20064;-79
2023/07/20 11:55:35;;;;;;;0.10;0.10;;;;;;;21.53;84.52;96410.28;5055946;28;20393;-80
2023/07/20 11:58:21;;;;;;;0.00;0.00;;;;;;;21.68;84.37;96409.78;5044360;28;20149;-78
2023/07/20 12:01:07;;;;;;;0.00;0.00;;;;;;;22.15;84.04;96404.47;5030693;28;20494;-79
2023/07/20 12:03:54;;;;;;;0.10;0.10;;;;;;;22.83;80.53;96407.31;5037262;28;20033;-78
2023/07/20 12:06:40;;;;;;;0.10;0.10;;;;;;;25.31;68.57;96401.00;5046375;28;20423;-79
2023/07/20 12:09:28;;;;;;;0.10;0.10;;;;;;;28.66;42.89;96391.84;5049296;28;20106;-80
2023/07/20 12:12:14;;;;;;;0.10;0.10;;;;;;;28.74;41.19;96397.13;5053810;28;20048;-78
2023/07/20 12:15:19;;;;;;;0.10;0.10;;;;;;;33.16;27.58;96391.84;5019332;28;20048;-78
2023/07/20 12:18:06;;;;;;;0.10;0.10;;;;;;;34.51;27.14;96385.88;5057606;28;20160;-79
2023/07/20 12:20:58;;;;;;;0.10;0.10;;;;;;;34.84;24.63;96376.09;5037532;28;20044;-80
2023/07/20 12:23:45;;;;;;;0.10;0.10;;;;;;;36.47;23.40;96381.16;5050602;28;20144;-78
2023/07/20 12:26:32;;;;;;;0.13;0.13;;;;;;;36.85;22.14;96381.00;5047764;28;20067;-80
2023/07/20 12:29:21;;;;;;;0.10;0.10;;;;;;;38.07;20.69;96374.84;5053887;28;20053;-79
2023/07/20 12:32:07;;;;;;;0.00;0.00;;;;;;;36.78;21.80;96376.31;5019959;28;20052;-79
2023/07/20 12:34:53;;;;;;;0.00;0.00;;;;;;;31.83;28.63;96373.34;5036800;28;20033;-79
2023/07/20 12:37:39;;;;;;;0.00;0.00;;;;;;;29.50;29.92;96372.38;5051189;28;20237;-80
2023/07/20 12:40:25;;;;;;;0.20;0.20;;;;;;;32.49;27.89;96376.72;5032199;28;20382;-78
2023/07/20 12:43:11;;;;;;;0.20;0.20;;;;;;;36.92;21.48;96357.81;5054490;28;20045;-79
2023/07/20 12:45:57;;;;;;;0.00;0.00;;;;;;;34.04;25.45;96365.09;5054498;28;20043;-79
2023/07/20 12:48:43;;;;;;;0.00;0.00;;;;;;;29.27;32.15;96375.16;5055884;28;20056;-79
2023/07/20 12:51:33;;;;;;;0.10;0.10;;;;;;;27.74;41.61;96386.16;5038722;28;20368;-79
2023/07/20 12:54:18;;;;;;;0.05;0.05;;;;;;;26.16;45.83;96386.25;5051474;28;20068;-79
2023/07/20 12:57:05;;;;;;;0.00;0.00;;;;;;;25.66;51.84;96386.75;5052563;28;20711;-78
2023/07/20 12:59:50;;;;;;;0.00;0.00;;;;;;;25.43;55.79;96375.50;5052991;28;20029;-79